Terminal Aerodrome Forecast
Issued by NWS

Home | Current Version | Previous Version | Text Only | Print | Product List | Glossary On
Versions: 1 2 3 4 5 6 7 8 9 10 11 12 13 14 15 16
000
FTUS45 KRIW 052300
TAFCOD
TAF
KCOD 052328Z 0600/0624 10008KT P6SM SCT100 BKN200 WS020/28040KT
     FM060200 28010G18KT P6SM SCT100 BKN200 WS020/28040KT
     FM060400 26015G25KT P6SM SCT100 BKN200 WS015/28045KT
     FM061900 27013KT P6SM SCT200
      AMD LTD TO CLD VIS AND WIND=

USA.gov is the U.S. government's official web portal to all federal, state and local government web resources and services.